Time;durP1;ratioP1;P1;durP2;ratioP2;P2;SDS_P1;SDS_P2;PMS_P1;PMS_P2;Temp;Humidity;BMP_temperature;BMP_pressure;BME280_temperature;BME280_humidity;BME280_pressure;Samples;Min_cycle;Max_cycle;Signal;HPM_P1;HPM_P2
2021/12/24 00:01:12;;;;;;;5.13;2.47;;;7.40;75.10;;;;;;4982508;28;20319;-87
2021/12/24 00:03:39;;;;;;;5.00;2.47;;;7.30;77.70;;;;;;4981630;28;20190;-89
2021/12/24 00:06:07;;;;;;;3.73;2.50;;;7.20;99.90;;;;;;4982563;28;20193;-89
2021/12/24 00:08:35;;;;;;;5.20;2.43;;;7.30;99.90;;;;;;4997899;28;20188;-88
2021/12/24 00:11:03;;;;;;;5.30;2.20;;;7.30;99.90;;;;;;4967669;28;20224;-88
2021/12/24 00:13:38;;;;;;;4.73;2.43;;;7.20;99.90;;;;;;4982020;28;20220;-88
2021/12/24 00:16:23;;;;;;;3.97;2.57;;;7.20;99.90;;;;;;4980978;28;20192;-85
2021/12/24 00:35:35;;;;;;;4.30;2.53;;;6.90;40.20;;;;;;5000300;28;20201;-87
2021/12/24 00:38:10;;;;;;;4.53;3.00;;;6.70;99.90;;;;;;5001055;28;20726;-88
2021/12/24 00:40:43;;;;;;;4.37;2.83;;;6.50;99.90;;;;;;4999929;28;20213;-87
2021/12/24 00:43:12;;;;;;;6.07;2.37;;;6.40;99.90;;;;;;4984469;28;20217;-90
2021/12/24 00:45:43;;;;;;;2.97;2.30;;;6.70;99.90;;;;;;5017684;28;20213;-89
2021/12/24 00:48:13;;;;;;;3.43;2.00;;;7.00;99.90;;;;;;4984207;28;20192;-91
2021/12/24 00:56:10;;;;;;;4.40;2.17;;;7.40;1.00;;;;;;5000399;28;20200;-92
2021/12/24 00:58:38;;;;;;;2.67;2.00;;;7.50;1.00;;;;;;4983790;28;20192;-90
2021/12/24 01:01:07;;;;;;;4.90;2.10;;;7.60;1.00;;;;;;4983725;28;20185;-91
2021/12/24 01:03:34;;;;;;;3.08;1.90;;;7.70;1.00;;;;;;4984046;28;20189;-89
2021/12/24 01:06:01;;;;;;;2.70;2.00;;;7.70;1.00;;;;;;4983791;28;20193;-85
2021/12/24 01:08:28;;;;;;;2.70;2.03;;;7.80;1.00;;;;;;4983662;28;20201;-89
2021/12/24 01:11:01;;;;;;;4.10;2.30;;;7.80;1.00;;;;;;4984161;28;20312;-89
2021/12/24 01:13:29;;;;;;;4.67;2.47;;;7.80;1.00;;;;;;4983911;28;20189;-85
2021/12/24 01:16:11;;;;;;;3.08;2.47;;;7.80;1.00;;;;;;4999109;28;20205;-90
2021/12/24 01:19:06;;;;;;;2.87;2.40;;;7.80;1.00;;;;;;4983246;28;20197;-89
2021/12/24 01:21:49;;;;;;;3.83;2.20;;;7.80;1.00;;;;;;5000211;28;20211;-88
2021/12/24 01:24:22;;;;;;;3.03;1.80;;;7.80;1.00;;;;;;5016731;28;20248;-86
2021/12/24 01:40:22;;;;;;;5.82;1.98;;;7.90;1.00;;;;;;4998480;28;20193;-84
2021/12/24 01:42:51;;;;;;;3.13;2.10;;;7.90;1.00;;;;;;4983156;28;20217;-90
2021/12/24 01:45:27;;;;;;;5.70;2.30;;;8.00;1.00;;;;;;4983338;28;20216;-86
2021/12/24 01:47:58;;;;;;;2.92;1.88;;;8.00;1.00;;;;;;4982885;28;20654;-92
2021/12/24 01:50:27;;;;;;;3.33;2.03;;;8.10;1.00;;;;;;5016854;28;20189;-87
2021/12/24 01:52:55;;;;;;;3.58;2.13;;;8.10;1.00;;;;;;4982356;28;20255;-88
2021/12/24 01:55:24;;;;;;;5.10;2.30;;;8.20;1.00;;;;;;4983017;28;20211;-84
2021/12/24 01:57:52;;;;;;;3.47;1.98;;;8.30;1.00;;;;;;4997719;28;20194;-85
2021/12/24 02:00:22;;;;;;;3.57;2.23;;;8.30;1.00;;;;;;4982784;28;20248;-89
2021/12/24 02:02:49;;;;;;;3.65;2.05;;;8.20;1.00;;;;;;4982674;28;20263;-84
2021/12/24 02:05:18;;;;;;;3.30;2.40;;;8.20;1.00;;;;;;4998317;28;20196;-80
2021/12/24 02:07:45;;;;;;;3.35;2.53;;;8.20;1.00;;;;;;4982088;28;20193;-86
2021/12/24 02:10:15;;;;;;;5.53;2.60;;;8.20;1.00;;;;;;4981474;28;20598;-88
2021/12/24 02:12:42;;;;;;;3.00;2.30;;;8.20;1.00;;;;;;4997679;28;20196;-81
2021/12/24 02:15:18;;;;;;;3.85;2.10;;;8.20;1.00;;;;;;4998406;28;20190;-88
2021/12/24 02:28:40;;;;;;;4.40;2.67;;;8.20;1.00;;;;;;4997614;28;20594;-84
2021/12/24 02:31:12;;;;;;;3.47;2.80;;;8.20;1.00;;;;;;4982003;28;20284;-82
2021/12/24 02:33:40;;;;;;;3.20;2.63;;;8.20;1.00;;;;;;4981208;28;20201;-85
2021/12/24 02:36:08;;;;;;;5.15;2.70;;;8.20;1.00;;;;;;4997962;28;20252;-83
2021/12/24 02:38:36;;;;;;;3.53;2.30;;;8.20;1.00;;;;;;4981338;28;20255;-84
2021/12/24 02:41:04;;;;;;;5.40;2.40;;;8.20;1.00;;;;;;4980586;28;20189;-83
2021/12/24 02:43:31;;;;;;;4.43;2.97;;;8.10;1.00;;;;;;4997037;28;20742;-82
2021/12/24 02:46:05;;;;;;;4.00;2.45;;;8.10;1.00;;;;;;4981012;28;20228;-89
2021/12/24 02:54:01;;;;;;;5.17;3.00;;;8.00;1.00;;;;;;4996383;28;20398;-86
2021/12/24 02:56:37;;;;;;;4.10;2.97;;;8.10;1.00;;;;;;5014537;28;20287;-83
2021/12/24 02:59:14;;;;;;;2.55;2.10;;;8.00;1.00;;;;;;4996910;28;20189;-85
2021/12/24 03:01:44;;;;;;;7.57;2.40;;;8.10;1.00;;;;;;4980586;28;20192;-85
2021/12/24 03:04:12;;;;;;;6.00;3.00;;;8.10;1.00;;;;;;4996305;28;20194;-86
2021/12/24 03:06:46;;;;;;;4.20;2.60;;;8.10;1.00;;;;;;4980642;28;20642;-83
2021/12/24 03:09:16;;;;;;;5.70;3.20;;;8.10;1.00;;;;;;4996657;28;20189;-86
2021/12/24 03:11:44;;;;;;;3.97;2.77;;;8.00;1.00;;;;;;4980675;28;20220;-86
2021/12/24 03:14:15;;;;;;;4.17;2.43;;;8.00;1.00;;;;;;4997016;28;20193;-84
2021/12/24 03:16:45;;;;;;;3.93;3.03;;;8.00;1.00;;;;;;4981076;28;20197;-85
2021/12/24 03:19:13;;;;;;;3.23;2.90;;;8.00;1.00;;;;;;4980829;28;20663;-83
2021/12/24 03:21:54;;;;;;;3.23;2.90;;;8.00;1.00;;;;;;4996677;28;20195;-87
2021/12/24 03:26:49;;;;;;;4.50;3.23;;;7.90;1.00;;;;;;5014813;28;20239;-85
2021/12/24 03:29:18;;;;;;;4.17;3.07;;;7.90;1.00;;;;;;4980204;28;20648;-84
2021/12/24 03:31:45;;;;;;;3.53;2.57;;;7.90;1.00;;;;;;4980200;28;20217;-84
2021/12/24 03:34:16;;;;;;;3.80;3.10;;;7.90;1.00;;;;;;4996517;28;20193;-87
2021/12/24 03:36:43;;;;;;;3.83;3.00;;;7.90;1.00;;;;;;4980427;28;20332;-82
2021/12/24 03:39:11;;;;;;;5.50;3.38;;;7.90;1.00;;;;;;4980156;28;20185;-82
2021/12/24 03:41:38;;;;;;;3.77;2.90;;;7.80;1.00;;;;;;4980161;28;20223;-83
2021/12/24 03:44:08;;;;;;;3.23;2.87;;;7.80;1.00;;;;;;4980019;28;20217;-85
2021/12/24 03:47:04;;;;;;;4.50;2.93;;;7.80;1.00;;;;;;4979970;28;20678;-85
2021/12/24 03:54:57;;;;;;;5.57;3.30;;;7.70;1.00;;;;;;4996839;28;20205;-85
2021/12/24 03:57:31;;;;;;;2.90;2.58;;;7.80;1.00;;;;;;4980997;28;20629;-86
2021/12/24 04:00:17;;;;;;;4.75;3.05;;;7.70;1.00;;;;;;4980631;28;20668;-85
2021/12/24 04:02:46;;;;;;;5.33;2.73;;;7.70;1.00;;;;;;4997107;28;20214;-83
2021/12/24 04:05:14;;;;;;;5.73;3.00;;;7.70;1.00;;;;;;4981062;28;20236;-88
2021/12/24 04:07:41;;;;;;;3.67;2.80;;;7.70;1.00;;;;;;4981334;28;20198;-86
2021/12/24 04:10:22;;;;;;;4.43;3.30;;;7.60;4.00;;;;;;4980747;28;20623;-84
2021/12/24 04:12:49;;;;;;;6.20;3.37;;;7.60;32.40;;;;;;4983838;28;20200;-81
2021/12/24 04:15:16;;;;;;;4.87;3.40;;;7.60;27.90;;;;;;4983910;28;20239;-81
2021/12/24 04:17:44;;;;;;;5.53;3.10;;;7.60;28.40;;;;;;4984332;28;20659;-87
2021/12/24 04:25:30;;;;;;;3.30;2.80;;;7.50;99.90;;;;;;5000307;28;20186;-88
2021/12/24 04:27:59;;;;;;;6.73;3.53;;;7.50;99.90;;;;;;5000612;28;20264;-86
2021/12/24 04:30:34;;;;;;;7.00;3.10;;;7.50;99.90;;;;;;5017865;28;20194;-91
2021/12/24 04:33:08;;;;;;;5.43;3.37;;;7.50;99.90;;;;;;4983539;28;20279;-88
2021/12/24 04:35:45;;;;;;;7.40;3.70;;;7.40;99.90;;;;;;5000369;28;20281;-90
2021/12/24 04:51:59;;;;;;;4.80;3.60;;;7.50;99.90;;;;;;4999414;28;20530;-89
2021/12/24 05:05:23;;;;;;;4.33;2.90;;;7.50;85.50;;;;;;4999751;28;20628;-88
2021/12/24 05:10:23;;;;;;;6.00;3.40;;;7.40;42.30;;;;;;4999632;28;20222;-89
2021/12/24 05:12:51;;;;;;;6.60;3.23;;;7.40;47.40;;;;;;4962926;28;20205;-86
2021/12/24 05:15:18;;;;;;;3.70;2.90;;;7.40;33.40;;;;;;4963793;28;20222;-85
2021/12/24 05:23:26;;;;;;;4.80;3.10;;;7.40;57.20;;;;;;4999597;28;20683;-88
2021/12/24 05:25:53;;;;;;;6.17;3.20;;;7.30;92.00;;;;;;4983654;28;20280;-86
2021/12/24 05:28:21;;;;;;;5.60;3.10;;;7.40;96.70;;;;;;4983566;28;20243;-89
2021/12/24 05:30:49;;;;;;;4.53;3.50;;;7.30;99.90;;;;;;4983292;28;20256;-89
2021/12/24 05:33:16;;;;;;;4.37;3.27;;;7.40;99.90;;;;;;4999416;28;20224;-86
2021/12/24 05:35:44;;;;;;;4.38;3.03;;;7.30;99.90;;;;;;4982470;28;20196;-84
2021/12/24 05:38:15;;;;;;;4.70;3.37;;;7.30;99.90;;;;;;4999226;28;20255;-85
2021/12/24 05:40:44;;;;;;;4.67;2.80;;;7.30;99.90;;;;;;4977608;28;20268;-89
2021/12/24 05:43:11;;;;;;;4.10;3.07;;;7.30;99.90;;;;;;4963577;28;20228;-86
2021/12/24 05:45:38;;;;;;;4.97;3.50;;;7.30;99.90;;;;;;4995550;28;20268;-84
2021/12/24 05:48:05;;;;;;;4.70;3.57;;;7.30;99.90;;;;;;4998748;28;20659;-84
2021/12/24 05:50:32;;;;;;;4.70;3.37;;;7.30;99.90;;;;;;4968481;28;20249;-86
2021/12/24 05:52:59;;;;;;;5.65;3.88;;;7.30;99.90;;;;;;4962767;28;20225;-88
2021/12/24 05:55:26;;;;;;;4.77;3.30;;;7.30;99.90;;;;;;4993180;28;20527;-89
2021/12/24 05:57:53;;;;;;;6.60;3.83;;;7.30;99.90;;;;;;4981779;28;20185;-89
2021/12/24 06:00:20;;;;;;;5.13;3.70;;;7.30;99.90;;;;;;4978299;28;20201;-85
2021/12/24 06:02:48;;;;;;;5.47;3.90;;;7.30;99.90;;;;;;5003219;28;20267;-84
2021/12/24 06:05:16;;;;;;;4.20;3.73;;;7.30;99.90;;;;;;4998866;28;20199;-85
2021/12/24 06:07:43;;;;;;;6.10;3.33;;;7.30;99.90;;;;;;4982202;28;20185;-86
2021/12/24 06:10:10;;;;;;;6.07;4.20;;;7.30;99.90;;;;;;4981171;28;20192;-87
2021/12/24 06:12:37;;;;;;;6.23;3.20;;;7.30;99.90;;;;;;4998302;28;20236;-88
2021/12/24 06:15:07;;;;;;;7.47;3.90;;;7.30;99.90;;;;;;4982320;28;20189;-85
2021/12/24 06:17:36;;;;;;;7.97;4.23;;;7.30;99.90;;;;;;4998616;28;20201;-88
2021/12/24 06:20:06;;;;;;;9.10;4.20;;;7.30;99.90;;;;;;4982383;28;20201;-85
2021/12/24 06:22:33;;;;;;;7.57;4.43;;;7.30;99.90;;;;;;5015081;28;20631;-84
2021/12/24 06:25:02;;;;;;;6.47;4.10;;;7.20;99.90;;;;;;4981616;28;20193;-89
2021/12/24 06:27:30;;;;;;;4.97;4.00;;;7.30;99.90;;;;;;4996146;28;20192;-86
2021/12/24 06:29:58;;;;;;;5.17;3.93;;;7.30;99.90;;;;;;4981819;28;20192;-89
2021/12/24 06:32:25;;;;;;;5.97;3.77;;;7.20;99.90;;;;;;4981663;28;20196;-82
2021/12/24 06:34:52;;;;;;;7.50;3.90;;;7.20;99.90;;;;;;4997379;28;20263;-88
2021/12/24 06:37:19;;;;;;;10.00;4.40;;;7.20;99.90;;;;;;4981916;28;20181;-87
2021/12/24 06:39:46;;;;;;;6.40;4.20;;;7.20;99.90;;;;;;4981561;28;20232;-86
2021/12/24 06:42:14;;;;;;;5.90;4.10;;;7.20;99.90;;;;;;4998221;28;20267;-84
2021/12/24 06:44:40;;;;;;;8.23;4.40;;;7.10;99.90;;;;;;4980962;28;20303;-88
2021/12/24 06:47:07;;;;;;;6.00;4.20;;;7.10;99.90;;;;;;4981290;28;20596;-89
2021/12/24 06:49:35;;;;;;;12.27;4.70;;;7.20;99.90;;;;;;4981494;28;20197;-86
2021/12/24 06:52:03;;;;;;;7.00;4.43;;;7.20;99.90;;;;;;4997632;28;20280;-91
2021/12/24 06:54:31;;;;;;;6.00;4.77;;;7.20;99.90;;;;;;4980851;28;20612;-86
2021/12/24 06:56:58;;;;;;;8.13;4.50;;;7.10;99.90;;;;;;4980944;28;20216;-87
2021/12/24 06:59:25;;;;;;;5.40;4.57;;;7.10;99.90;;;;;;4981268;28;20193;-84
2021/12/24 07:01:52;;;;;;;8.23;4.33;;;7.10;99.90;;;;;;4978646;28;20205;-87
2021/12/24 07:04:20;;;;;;;7.73;4.23;;;7.10;99.90;;;;;;4998037;28;20216;-79
2021/12/24 07:06:48;;;;;;;5.63;4.10;;;7.10;99.90;;;;;;5002367;28;20240;-88
2021/12/24 07:09:15;;;;;;;7.23;4.87;;;7.00;1.00;;;;;;4981774;28;20196;-89
2021/12/24 07:11:43;;;;;;;7.33;4.23;;;7.00;1.00;;;;;;4982039;28;20740;-87
2021/12/24 07:14:10;;;;;;;7.87;4.50;;;7.00;1.00;;;;;;5014699;28;20197;-85
2021/12/24 07:16:46;;;;;;;6.60;4.07;;;6.90;1.00;;;;;;4983552;28;20184;-87
2021/12/24 07:19:13;;;;;;;7.27;4.70;;;6.90;1.00;;;;;;4996963;28;20204;-88
2021/12/24 07:21:42;;;;;;;8.13;4.93;;;6.80;1.00;;;;;;4970866;28;20288;-86
2021/12/24 07:24:09;;;;;;;7.20;4.77;;;6.80;1.00;;;;;;4997169;28;20315;-89
2021/12/24 07:26:37;;;;;;;4.63;3.80;;;6.80;1.00;;;;;;5014828;28;20221;-89
2021/12/24 07:29:04;;;;;;;7.00;4.03;;;6.80;1.00;;;;;;4979928;28;20193;-87
2021/12/24 07:31:31;;;;;;;6.90;4.10;;;6.80;1.00;;;;;;4981540;28;20698;-86
2021/12/24 07:33:58;;;;;;;8.10;4.73;;;6.70;1.00;;;;;;4997641;28;20223;-87
2021/12/24 07:36:27;;;;;;;7.30;4.13;;;6.70;1.00;;;;;;4997099;28;20199;-87
2021/12/24 07:38:54;;;;;;;4.60;3.70;;;6.70;1.00;;;;;;4997569;28;20189;-88
2021/12/24 07:41:24;;;;;;;9.43;4.03;;;6.80;1.00;;;;;;4980793;28;20209;-86
2021/12/24 07:43:51;;;;;;;6.70;4.47;;;6.80;1.00;;;;;;4980697;28;20279;-82
2021/12/24 07:46:22;;;;;;;5.70;4.13;;;6.80;1.00;;;;;;4980718;28;20953;-87
2021/12/24 07:48:49;;;;;;;6.30;4.03;;;6.90;1.00;;;;;;5006422;28;20193;-88
2021/12/24 07:54:04;;;;;;;6.27;4.00;;;6.90;1.00;;;;;;4990499;28;20211;-89
2021/12/24 07:56:31;;;;;;;6.70;4.27;;;6.80;1.00;;;;;;4997154;28;20536;-89
2021/12/24 07:59:01;;;;;;;6.37;4.23;;;6.70;1.00;;;;;;4996547;28;20189;-88
2021/12/24 08:01:28;;;;;;;6.60;4.23;;;6.60;40.80;;;;;;4980655;28;20193;-88
2021/12/24 08:03:56;;;;;;;7.33;4.77;;;6.60;99.90;;;;;;4997332;28;20212;-89
2021/12/24 08:06:25;;;;;;;6.27;4.43;;;6.50;99.90;;;;;;4981011;28;20659;-89
2021/12/24 08:08:52;;;;;;;6.73;4.20;;;6.40;99.90;;;;;;4997127;28;20200;-91
2021/12/24 08:11:19;;;;;;;10.60;4.50;;;6.30;99.90;;;;;;4996997;28;20197;-90
2021/12/24 08:13:45;;;;;;;6.53;4.30;;;6.30;1.00;;;;;;4980321;28;20660;-87
2021/12/24 08:16:14;;;;;;;8.90;4.90;;;6.30;1.00;;;;;;4996538;28;20197;-88
2021/12/24 08:18:43;;;;;;;6.43;4.30;;;6.20;1.00;;;;;;5014500;28;20228;-90
2021/12/24 08:21:10;;;;;;;7.03;4.23;;;6.20;1.00;;;;;;4981024;28;20193;-89
2021/12/24 08:23:37;;;;;;;7.93;5.20;;;6.20;1.00;;;;;;4975810;28;20206;-88
2021/12/24 08:26:05;;;;;;;7.50;5.10;;;6.20;1.00;;;;;;4976294;28;20257;-89
2021/12/24 08:28:31;;;;;;;10.10;5.00;;;6.20;1.00;;;;;;4980369;28;20638;-90
2021/12/24 08:30:59;;;;;;;8.43;5.10;;;6.10;1.00;;;;;;4996790;28;20224;-86
2021/12/24 08:33:26;;;;;;;6.70;4.80;;;6.10;1.00;;;;;;5014310;28;20212;-87
2021/12/24 08:35:54;;;;;;;5.97;4.77;;;6.10;31.20;;;;;;4980126;28;20251;-85
2021/12/24 08:38:21;;;;;;;9.17;5.43;;;6.10;99.90;;;;;;4996276;28;20189;-87
2021/12/24 08:40:48;;;;;;;6.93;4.87;;;6.10;99.90;;;;;;4995527;28;20236;-87
2021/12/24 08:43:15;;;;;;;10.37;5.13;;;6.00;99.90;;;;;;4979565;28;20212;-88
2021/12/24 08:45:42;;;;;;;7.03;4.90;;;6.00;99.90;;;;;;4995414;28;20662;-86
2021/12/24 08:48:09;;;;;;;7.53;4.67;;;6.00;99.90;;;;;;4969020;28;20660;-86
2021/12/24 08:50:36;;;;;;;11.77;5.40;;;6.00;99.90;;;;;;4979415;28;20193;-90
2021/12/24 08:53:03;;;;;;;8.57;5.03;;;6.00;99.90;;;;;;4978841;28;20200;-87
2021/12/24 08:55:33;;;;;;;6.27;4.57;;;5.90;1.00;;;;;;4983032;28;20197;-89
2021/12/24 08:58:02;;;;;;;11.27;5.70;;;5.90;1.00;;;;;;4982980;28;20531;-90
2021/12/24 09:00:33;;;;;;;7.23;5.40;;;5.80;1.00;;;;;;4983472;28;20211;-91
2021/12/24 09:03:02;;;;;;;7.93;4.80;;;5.90;1.00;;;;;;4983005;28;20189;-90
2021/12/24 09:05:30;;;;;;;8.47;5.53;;;5.80;1.00;;;;;;4983280;28;20205;-87
2021/12/24 09:07:57;;;;;;;5.73;4.67;;;5.80;1.00;;;;;;4983664;28;20197;-91
2021/12/24 09:10:25;;;;;;;6.60;5.00;;;5.80;1.00;;;;;;4983809;28;20719;-91
2021/12/24 09:12:52;;;;;;;5.67;4.70;;;5.80;1.00;;;;;;4983364;28;20189;-91
2021/12/24 09:15:19;;;;;;;6.20;4.33;;;5.90;1.00;;;;;;4982601;28;20560;-92
2021/12/24 09:17:47;;;;;;;6.30;4.20;;;5.90;1.00;;;;;;4983803;28;20194;-91
2021/12/24 09:20:22;;;;;;;6.67;4.13;;;5.80;1.00;;;;;;4983633;28;20659;-88
2021/12/24 09:22:50;;;;;;;14.73;5.13;;;5.80;1.00;;;;;;4969086;28;20201;-91
2021/12/24 09:25:18;;;;;;;5.83;4.27;;;5.90;1.00;;;;;;4983935;28;20659;-92
2021/12/24 09:27:45;;;;;;;6.57;3.83;;;5.80;1.00;;;;;;4968164;28;20197;-89
2021/12/24 09:30:12;;;;;;;4.40;4.00;;;5.90;1.00;;;;;;4983463;28;20181;-92
2021/12/24 09:32:40;;;;;;;4.53;3.57;;;5.90;1.00;;;;;;5000683;28;20540;-92
2021/12/24 09:35:07;;;;;;;5.03;4.00;;;5.90;1.00;;;;;;4985548;28;20232;-93
2021/12/24 09:37:35;;;;;;;4.93;3.27;;;5.90;1.00;;;;;;4982035;28;20302;-86
2021/12/24 09:40:04;;;;;;;5.97;4.03;;;5.80;1.00;;;;;;4964711;28;20210;-92
2021/12/24 09:42:32;;;;;;;7.50;4.90;;;5.80;1.00;;;;;;4982143;28;20209;-92
2021/12/24 09:44:59;;;;;;;6.10;4.50;;;5.80;1.00;;;;;;4971486;28;20229;-92
2021/12/24 09:47:26;;;;;;;4.97;3.80;;;5.80;1.00;;;;;;4979566;28;20194;-93
2021/12/24 09:49:53;;;;;;;3.97;3.53;;;5.80;1.00;;;;;;4977322;28;20583;-90
2021/12/24 09:52:21;;;;;;;4.33;2.80;;;5.90;1.00;;;;;;4989145;28;20193;-90
2021/12/24 09:54:50;;;;;;;4.10;2.77;;;5.90;1.00;;;;;;4995138;28;20562;-91
2021/12/24 09:57:17;;;;;;;4.47;2.97;;;5.90;99.90;;;;;;4977097;28;20678;-92
2021/12/24 09:59:44;;;;;;;7.80;5.77;;;5.90;99.90;;;;;;4989825;28;20255;-90
2021/12/24 10:02:19;;;;;;;3.97;3.13;;;6.00;1.00;;;;;;4979775;28;20293;-89
2021/12/24 10:04:47;;;;;;;2.43;2.20;;;6.00;1.00;;;;;;4976726;28;20213;-91
2021/12/24 10:07:24;;;;;;;3.27;2.97;;;6.00;99.90;;;;;;4980875;28;20193;-90
2021/12/24 10:09:51;;;;;;;2.67;2.37;;;6.00;1.00;;;;;;4999341;28;20194;-90
2021/12/24 10:12:24;;;;;;;3.57;2.40;;;6.00;99.90;;;;;;4978564;28;20201;-88
2021/12/24 10:14:56;;;;;;;2.00;1.80;;;6.00;1.00;;;;;;4973932;28;20193;-91
2021/12/24 10:17:35;;;;;;;3.13;2.77;;;6.00;1.00;;;;;;4996254;28;20221;-89
2021/12/24 10:20:12;;;;;;;2.10;1.83;;;6.00;99.90;;;;;;4977099;28;20256;-89
2021/12/24 10:22:52;;;;;;;2.43;2.13;;;6.00;1.00;;;;;;4974394;28;20229;-89
2021/12/24 10:25:30;;;;;;;3.10;1.93;;;6.00;99.90;;;;;;4991492;28;20262;-86
2021/12/24 10:28:08;;;;;;;2.47;1.67;;;6.00;1.00;;;;;;5005431;28;20189;-91
2021/12/24 10:30:35;;;;;;;2.07;1.60;;;6.00;1.00;;;;;;4996572;28;20609;-91
2021/12/24 10:33:10;;;;;;;2.47;1.50;;;6.00;1.00;;;;;;4974330;28;20277;-90
2021/12/24 10:35:38;;;;;;;2.87;1.40;;;6.00;1.00;;;;;;4959059;28;20197;-91
2021/12/24 10:38:15;;;;;;;1.60;1.50;;;6.00;1.00;;;;;;4987829;28;20197;-85
2021/12/24 10:40:52;;;;;;;1.40;1.30;;;6.10;1.00;;;;;;4987263;28;20220;-87
2021/12/24 10:43:30;;;;;;;1.60;1.20;;;6.10;1.00;;;;;;4976213;28;20205;-91
2021/12/24 10:46:18;;;;;;;3.10;1.20;;;6.10;1.00;;;;;;4980816;28;20194;-90
2021/12/24 10:49:28;;;;;;;2.13;1.27;;;6.10;1.00;;;;;;4996937;28;20193;-90
2021/12/24 10:52:00;;;;;;;1.27;0.90;;;6.10;1.00;;;;;;5011759;28;20216;-87
2021/12/24 10:54:27;;;;;;;1.17;1.07;;;6.10;1.00;;;;;;4981967;28;20595;-91
2021/12/24 10:57:15;;;;;;;1.00;0.90;;;6.10;1.00;;;;;;4981576;28;20197;-88
2021/12/24 10:59:49;;;;;;;3.40;1.30;;;6.10;1.00;;;;;;4978899;28;20710;-90
2021/12/24 11:02:19;;;;;;;1.43;1.10;;;6.10;1.00;;;;;;4980788;28;20193;-90
2021/12/24 11:04:47;;;;;;;1.17;1.07;;;6.10;1.00;;;;;;4980447;28;20300;-91
2021/12/24 11:07:37;;;;;;;1.27;1.00;;;6.10;1.00;;;;;;4977917;28;20194;-90
2021/12/24 11:10:05;;;;;;;1.33;1.23;;;6.10;1.00;;;;;;4981614;28;20189;-89
2021/12/24 11:12:36;;;;;;;4.70;3.13;;;6.10;1.00;;;;;;4997728;28;20193;-82
2021/12/24 11:15:37;;;;;;;1.40;1.30;;;6.20;1.00;;;;;;4978682;28;20216;-90
2021/12/24 11:18:20;;;;;;;0.90;0.90;;;6.20;1.00;;;;;;4975208;28;20233;-88
2021/12/24 11:21:08;;;;;;;1.20;1.10;;;6.20;1.00;;;;;;4980561;28;20200;-90
2021/12/24 11:23:38;;;;;;;1.00;1.00;;;6.20;1.00;;;;;;4978453;28;20727;-89
2021/12/24 11:26:15;;;;;;;1.10;1.00;;;6.20;1.00;;;;;;4980984;28;20228;-87
2021/12/24 11:28:43;;;;;;;1.00;0.90;;;6.20;1.00;;;;;;4980819;28;20191;-88
2021/12/24 11:31:13;;;;;;;1.00;1.00;;;6.20;1.00;;;;;;4982154;28;20186;-90
2021/12/24 11:33:42;;;;;;;0.60;0.60;;;6.20;1.00;;;;;;4980009;28;20280;-90
2021/12/24 11:36:13;;;;;;;0.87;0.80;;;6.30;1.00;;;;;;4980877;28;20304;-89
2021/12/24 11:38:45;;;;;;;1.00;0.80;;;6.30;1.00;;;;;;4979273;28;20201;-90
2021/12/24 11:41:14;;;;;;;0.57;0.57;;;6.30;1.00;;;;;;4980576;28;20189;-89
2021/12/24 11:43:44;;;;;;;0.90;0.80;;;6.30;1.00;;;;;;4980888;28;20204;-90
2021/12/24 11:46:16;;;;;;;7.10;5.63;;;6.30;1.00;;;;;;4980620;28;20213;-89
2021/12/24 11:48:48;;;;;;;1.80;1.50;;;6.30;1.00;;;;;;4968364;28;20200;-87
2021/12/24 11:51:18;;;;;;;1.63;1.43;;;6.30;1.00;;;;;;4994768;28;20215;-90
2021/12/24 11:53:47;;;;;;;4.27;3.83;;;6.30;1.00;;;;;;4994438;28;20706;-89
2021/12/24 11:56:17;;;;;;;2.10;1.87;;;6.30;1.00;;;;;;4997170;28;20647;-90
2021/12/24 11:58:53;;;;;;;1.10;1.00;;;6.30;1.00;;;;;;4997619;28;20287;-86
2021/12/24 12:01:24;;;;;;;0.80;0.80;;;6.30;1.00;;;;;;4999602;28;20218;-89
2021/12/24 12:03:54;;;;;;;0.70;0.70;;;6.40;1.00;;;;;;4998929;28;20247;-89
2021/12/24 12:06:22;;;;;;;0.93;0.60;;;6.40;1.00;;;;;;5000689;28;20240;-87
2021/12/24 12:08:57;;;;;;;0.50;0.50;;;6.40;1.00;;;;;;4992096;28;20189;-90
2021/12/24 12:11:26;;;;;;;1.37;1.27;;;6.50;1.00;;;;;;4966102;28;20270;-89
2021/12/24 12:14:14;;;;;;;1.40;1.30;;;6.50;1.00;;;;;;4973810;28;20651;-89
2021/12/24 12:16:48;;;;;;;1.40;0.90;;;6.60;1.00;;;;;;4968270;28;20223;-89
2021/12/24 12:22:24;;;;;;;0.50;0.50;;;6.70;1.00;;;;;;4999383;28;20199;-86
2021/12/24 12:25:01;;;;;;;0.70;0.60;;;6.80;1.00;;;;;;4982308;28;20205;-90
2021/12/24 12:27:44;;;;;;;0.83;0.63;;;6.80;1.00;;;;;;4977237;28;20200;-91
2021/12/24 12:30:21;;;;;;;0.37;0.37;;;6.70;1.00;;;;;;5000013;28;20182;-90
2021/12/24 12:32:50;;;;;;;0.60;0.60;;;6.70;1.00;;;;;;4998923;28;20189;-91
2021/12/24 12:35:18;;;;;;;0.30;0.30;;;6.60;1.00;;;;;;4978219;28;20197;-85
2021/12/24 12:37:51;;;;;;;0.80;0.80;;;6.60;1.00;;;;;;4994339;28;20198;-89
2021/12/24 12:40:21;;;;;;;0.50;0.50;;;6.60;1.00;;;;;;5000106;28;20196;-88
2021/12/24 12:42:56;;;;;;;1.33;0.80;;;6.60;1.00;;;;;;4998491;28;20215;-85
2021/12/24 12:45:32;;;;;;;0.97;0.47;;;6.60;1.00;;;;;;4987830;28;20213;-90
2021/12/24 12:48:02;;;;;;;0.30;0.30;;;6.60;1.00;;;;;;4980863;28;20181;-88
2021/12/24 12:50:33;;;;;;;0.70;0.70;;;6.60;1.00;;;;;;4981699;28;20671;-89
2021/12/24 12:53:22;;;;;;;0.57;0.57;;;6.60;1.00;;;;;;4968238;28;20281;-89
2021/12/24 12:56:18;;;;;;;0.70;0.57;;;6.60;1.00;;;;;;4976235;28;20694;-86
2021/12/24 12:59:02;;;;;;;1.53;1.27;;;6.50;1.00;;;;;;4980125;28;20193;-84
2021/12/24 13:01:33;;;;;;;0.60;0.60;;;6.50;1.00;;;;;;4984341;28;20193;-90
2021/12/24 13:04:00;;;;;;;0.80;0.80;;;6.40;1.00;;;;;;4984006;28;20236;-89
2021/12/24 13:06:36;;;;;;;0.57;0.57;;;6.40;1.00;;;;;;4985557;28;20222;-89
2021/12/24 13:09:08;;;;;;;1.20;1.10;;;6.40;1.00;;;;;;4987439;28;20235;-89
2021/12/24 13:11:48;;;;;;;0.40;0.40;;;6.40;1.00;;;;;;4994529;28;20190;-89
2021/12/24 13:14:17;;;;;;;3.50;0.60;;;6.40;1.00;;;;;;5000052;28;20235;-89
2021/12/24 13:17:16;;;;;;;0.30;0.30;;;6.40;1.00;;;;;;4981603;28;20208;-89
2021/12/24 13:22:31;;;;;;;0.67;0.60;;;6.40;1.00;;;;;;4997619;28;20212;-84
2021/12/24 13:25:18;;;;;;;1.40;1.30;;;6.30;1.00;;;;;;4997095;28;20215;-90
2021/12/24 13:27:51;;;;;;;0.67;0.67;;;6.40;1.00;;;;;;4971996;28;20193;-87
2021/12/24 13:30:31;;;;;;;0.50;0.50;;;6.40;1.00;;;;;;4975762;28;20198;-86
2021/12/24 13:33:02;;;;;;;0.80;0.60;;;6.40;1.00;;;;;;4974624;28;20554;-90
2021/12/24 13:35:49;;;;;;;0.77;0.73;;;6.50;1.00;;;;;;4976341;28;20285;-89
2021/12/24 13:38:28;;;;;;;0.70;0.70;;;6.50;1.00;;;;;;4978385;28;20213;-89
2021/12/24 13:40:56;;;;;;;0.50;0.50;;;6.60;1.00;;;;;;4991348;28;20201;-86
2021/12/24 13:43:26;;;;;;;0.43;0.43;;;6.80;1.00;;;;;;4980927;28;20200;-83
2021/12/24 13:45:54;;;;;;;0.40;0.40;;;6.90;1.00;;;;;;4980498;28;20205;-88
2021/12/24 13:48:29;;;;;;;0.90;0.43;;;7.00;1.00;;;;;;4981224;28;20223;-84
2021/12/24 13:56:42;;;;;;;0.70;0.40;;;7.00;99.90;;;;;;5010497;28;20193;-89
2021/12/24 13:59:10;;;;;;;1.97;1.47;;;6.90;99.90;;;;;;4976881;28;20203;-91
2021/12/24 14:01:42;;;;;;;2.17;1.93;;;6.80;99.90;;;;;;4994856;28;20645;-81
2021/12/24 14:04:10;;;;;;;1.93;1.73;;;6.80;99.90;;;;;;4977544;28;20181;-86
2021/12/24 14:06:40;;;;;;;0.53;0.50;;;6.90;99.90;;;;;;4983389;28;20679;-88
2021/12/24 14:09:26;;;;;;;0.50;0.50;;;6.80;99.90;;;;;;4981693;28;20566;-87
2021/12/24 14:11:54;;;;;;;0.40;0.40;;;6.80;1.00;;;;;;4978659;28;20208;-87
2021/12/24 14:14:29;;;;;;;0.23;0.23;;;6.70;1.00;;;;;;4981337;28;20296;-86
2021/12/24 14:22:24;;;;;;;3.20;2.43;;;6.70;99.90;;;;;;5013427;28;20201;-87
2021/12/24 14:24:54;;;;;;;0.30;0.30;;;6.70;1.00;;;;;;4991593;28;20204;-86
2021/12/24 14:27:27;;;;;;;15.43;12.40;;;6.70;1.00;;;;;;5021395;28;20247;-88
2021/12/24 14:29:57;;;;;;;55.53;34.37;;;6.70;1.00;;;;;;4974397;28;20186;-88
2021/12/24 14:32:38;;;;;;;10.40;8.40;;;6.70;1.00;;;;;;4985179;28;20188;-87
2021/12/24 14:35:21;;;;;;;0.80;0.47;;;6.70;1.00;;;;;;4986034;28;20189;-88
2021/12/24 14:38:00;;;;;;;0.20;0.20;;;6.60;1.00;;;;;;4979414;28;20637;-85
2021/12/24 14:40:30;;;;;;;0.93;0.50;;;6.60;1.00;;;;;;4977630;28;20184;-86
2021/12/24 14:42:58;;;;;;;0.20;0.20;;;6.50;1.00;;;;;;4975813;28;20217;-87
2021/12/24 14:45:33;;;;;;;1.30;0.30;;;6.50;1.00;;;;;;4978958;28;20201;-88
2021/12/24 14:48:12;;;;;;;0.53;0.33;;;6.40;1.00;;;;;;4977882;28;20202;-87
2021/12/24 14:50:50;;;;;;;0.33;0.33;;;6.40;1.00;;;;;;4977470;28;20670;-87
2021/12/24 14:53:25;;;;;;;0.60;0.50;;;6.40;1.00;;;;;;4977532;28;20200;-87
2021/12/24 14:56:04;;;;;;;0.50;0.50;;;6.40;1.00;;;;;;4996417;28;20573;-85
2021/12/24 14:58:45;;;;;;;0.50;0.50;;;6.40;1.00;;;;;;4980762;28;20204;-88
2021/12/24 15:01:20;;;;;;;0.53;0.50;;;6.30;1.00;;;;;;4998557;28;20197;-88
2021/12/24 15:03:54;;;;;;;1.00;0.40;;;6.30;1.00;;;;;;4980230;28;20276;-86
2021/12/24 15:06:25;;;;;;;0.40;0.40;;;6.30;1.00;;;;;;4976405;28;20216;-89
2021/12/24 15:08:54;;;;;;;0.30;0.20;;;6.30;1.00;;;;;;5000480;28;20192;-88
2021/12/24 15:11:27;;;;;;;0.37;0.37;;;6.20;1.00;;;;;;4961176;28;20834;-88
2021/12/24 15:14:01;;;;;;;2.03;1.40;;;6.20;1.00;;;;;;4975231;28;20269;-86
2021/12/24 15:16:32;;;;;;;25.53;10.93;;;6.20;1.00;;;;;;4981369;28;20200;-88
2021/12/24 15:19:01;;;;;;;61.27;17.90;;;6.20;1.00;;;;;;4979565;28;20244;-87
2021/12/24 15:21:30;;;;;;;55.60;23.53;;;6.20;1.00;;;;;;4997298;28;20220;-87